createdAt,value
2023-04-25T00:01:16.562Z,96640.69
2023-04-25T00:04:18.320Z,96640.28
2023-04-25T00:07:20.365Z,96639.72
2023-04-25T00:10:22.029Z,96638.31
2023-04-25T00:13:23.875Z,96645.06
2023-04-25T00:16:25.677Z,96645.09
2023-04-25T00:19:29.343Z,96647.75
2023-04-25T00:22:30.948Z,96643.31
2023-04-25T00:25:32.498Z,96645.56
2023-04-25T00:28:34.003Z,96646.75
2023-04-25T00:31:35.617Z,96654.91
2023-04-25T00:34:37.177Z,96649.41
2023-04-25T00:37:39.148Z,96645.94
2023-04-25T00:40:40.633Z,96646.94
2023-04-25T00:43:42.639Z,96647.59
2023-04-25T00:46:44.716Z,96648.63
2023-04-25T00:49:46.202Z,96632.91
2023-04-25T00:52:47.810Z,96637.38
2023-04-25T00:55:51.713Z,96631.69
2023-04-25T00:58:57.391Z,96636.81
2023-04-25T01:01:59.687Z,96628.50
2023-04-25T01:05:01.932Z,96633.00
2023-04-25T01:08:03.426Z,96622.63
2023-04-25T01:11:05.571Z,96622.41
2023-04-25T01:14:07.372Z,96619.13
2023-04-25T01:17:09.991Z,96624.03
2023-04-25T01:20:12.698Z,96615.25
2023-04-25T01:23:15.338Z,96627.50
2023-04-25T01:26:17.310Z,96615.03
2023-04-25T01:29:19.887Z,96615.22
2023-04-25T01:32:23.937Z,96620.53
2023-04-25T01:35:25.986Z,96616.66
2023-04-25T01:38:29.339Z,96608.84
2023-04-25T01:41:30.919Z,96607.81
2023-04-25T01:44:32.435Z,96611.41
2023-04-25T01:47:36.174Z,96607.69
2023-04-25T01:50:39.430Z,96591.25
2023-04-25T01:53:41.109Z,96600.25
2023-04-25T01:56:43.243Z,96598.00
2023-04-25T01:59:47.239Z,96593.56
2023-04-25T02:03:08.065Z,96599.69
2023-04-25T02:06:09.806Z,96606.63
2023-04-25T02:09:14.660Z,96605.59
2023-04-25T02:12:21.112Z,96596.41
2023-04-25T02:15:39.713Z,96591.94
2023-04-25T02:18:53.633Z,96591.13
2023-04-25T02:21:55.567Z,96592.53
2023-04-25T02:24:57.031Z,96592.53
2023-04-25T02:27:58.526Z,96585.81
2023-04-25T02:30:59.999Z,96574.00
2023-04-25T02:34:01.539Z,96582.31
2023-04-25T02:37:03.188Z,96579.66
2023-04-25T02:40:05.481Z,96584.78
2023-04-25T02:43:07.986Z,96585.59
2023-04-25T02:46:09.520Z,96587.59
2023-04-25T02:49:11.037Z,96586.97
2023-04-25T02:52:13.228Z,96585.56
2023-04-25T02:55:15.432Z,96577.19
2023-04-25T02:58:18.605Z,96570.09
2023-04-25T03:01:23.815Z,96565.22
2023-04-25T03:04:25.772Z,96563.78
2023-04-25T03:07:27.351Z,96575.41
2023-04-25T03:10:28.855Z,96568.06
2023-04-25T03:13:33.929Z,96564.41
2023-04-25T03:16:35.518Z,96548.53
2023-04-25T03:19:37.023Z,96558.50
2023-04-25T03:22:38.795Z,96553.41
2023-04-25T03:25:40.249Z,96557.47
2023-04-25T03:28:42.928Z,96552.78
2023-04-25T03:31:44.502Z,96546.69
2023-04-25T03:34:46.240Z,96539.56
2023-04-25T03:37:47.838Z,96539.56
2023-04-25T03:40:55.095Z,96538.72
2023-04-25T03:44:07.573Z,96524.28
2023-04-25T03:47:09.107Z,96521.19
2023-04-25T03:50:11.228Z,96527.31
2023-04-25T03:53:12.751Z,96520.78
2023-04-25T03:56:32.705Z,96512.00
2023-04-25T03:59:41.618Z,96515.44
2023-04-25T04:02:46.195Z,96511.31
2023-04-25T04:05:48.486Z,96500.47
2023-04-25T04:08:50.066Z,96503.25
2023-04-25T04:11:51.919Z,96502.84
2023-04-25T04:14:53.368Z,96504.28
2023-04-25T04:17:55.778Z,96508.56
2023-04-25T04:20:59.032Z,96502.03
2023-04-25T04:24:02.821Z,96500.81
2023-04-25T04:27:08.526Z,96500.41
2023-04-25T04:30:30.494Z,96499.22
2023-04-25T04:33:33.983Z,96503.50
2023-04-25T04:36:38.313Z,96504.91
2023-04-25T04:39:39.884Z,96500.66
2023-04-25T04:42:59.180Z,96499.88
2023-04-25T04:46:13.668Z,96501.53
2023-04-25T04:49:50.954Z,96507.88
2023-04-25T04:53:05.664Z,96512.16
2023-04-25T04:56:26.266Z,96511.38
2023-04-25T04:59:43.442Z,96515.88
2023-04-25T05:03:14.150Z,96511.00
2023-04-25T05:06:39.804Z,96512.44
2023-04-25T05:09:53.889Z,96515.50
2023-04-25T05:13:14.989Z,96523.84
2023-04-25T05:16:28.326Z,96518.97
2023-04-25T05:19:49.621Z,96518.78
2023-04-25T05:23:13.983Z,96512.88
2023-04-25T05:26:18.163Z,96521.84
2023-04-25T05:29:27.886Z,96525.50
2023-04-25T05:32:41.449Z,96537.94
2023-04-25T05:35:43.410Z,96531.78
2023-04-25T05:38:46.468Z,96545.41
2023-04-25T05:41:56.737Z,96530.06
2023-04-25T05:45:18.994Z,96538.06
2023-04-25T05:48:29.532Z,96536.25
2023-04-25T05:51:40.470Z,96546.00
2023-04-25T05:55:03.208Z,96543.78
2023-04-25T05:58:08.001Z,96552.16
2023-04-25T06:01:16.005Z,96564.41
2023-04-25T06:04:18.413Z,96578.25
2023-04-25T06:07:21.188Z,96584.72
2023-04-25T06:10:23.680Z,96579.38
2023-04-25T06:13:25.440Z,96587.44
2023-04-25T06:16:27.216Z,96600.25
2023-04-25T06:19:29.177Z,96598.47
2023-04-25T06:22:30.691Z,96598.78
2023-04-25T06:25:32.182Z,96601.69
2023-04-25T06:28:34.855Z,96605.97
2023-04-25T06:31:36.493Z,96608.88
2023-04-25T06:34:38.173Z,96609.25
2023-04-25T06:37:41.562Z,96616.00
2023-04-25T06:40:43.228Z,96607.03
2023-04-25T06:43:45.612Z,96613.59
2023-04-25T06:46:59.071Z,96623.81
2023-04-25T06:50:00.762Z,96621.56
2023-04-25T06:53:03.103Z,96613.66
2023-04-25T06:56:06.251Z,96620.44
2023-04-25T06:59:26.839Z,96614.31
2023-04-25T07:02:28.493Z,96621.22
2023-04-25T07:05:30.249Z,96623.88
2023-04-25T07:08:32.452Z,96621.84
2023-04-25T07:11:34.431Z,96642.41
2023-04-25T07:14:35.997Z,96628.50
2023-04-25T07:17:37.729Z,96636.78
2023-04-25T07:20:39.392Z,96642.91
2023-04-25T07:23:42.083Z,96655.84
2023-04-25T07:26:48.788Z,96647.72
2023-04-25T07:30:07.341Z,96645.66
2023-04-25T07:33:08.913Z,96654.25
2023-04-25T07:36:10.348Z,96661.63
2023-04-25T07:39:11.860Z,96660.72
2023-04-25T07:42:14.161Z,96659.97
2023-04-25T07:45:18.575Z,96672.81
2023-04-25T07:48:20.730Z,96675.06
2023-04-25T07:51:23.400Z,96683.13
2023-04-25T07:54:27.299Z,96684.66
2023-04-25T07:57:34.923Z,96702.63
2023-04-25T08:00:37.539Z,96698.63
2023-04-25T08:03:58.419Z,96706.44
2023-04-25T08:07:17.193Z,96717.03
2023-04-25T08:10:26.675Z,96722.38
2023-04-25T08:13:28.408Z,96730.47
2023-04-25T08:16:31.904Z,96727.94
2023-04-25T08:19:33.769Z,96732.69
2023-04-25T08:22:36.516Z,96743.84
2023-04-25T08:25:57.975Z,96746.13
2023-04-25T08:29:02.577Z,96747.59
2023-04-25T08:32:04.219Z,96755.56
2023-04-25T08:35:07.662Z,96764.53
2023-04-25T08:38:09.342Z,96769.75
2023-04-25T08:41:12.764Z,96765.34
2023-04-25T08:44:14.335Z,96777.84
2023-04-25T08:47:15.998Z,96780.31
2023-04-25T08:50:23.759Z,96783.72
2023-04-25T08:53:28.452Z,96778.22
2023-04-25T08:56:35.428Z,96778.09
2023-04-25T08:59:40.394Z,96788.56
2023-04-25T09:02:43.425Z,96790.41
2023-04-25T09:05:45.658Z,96804.09
2023-04-25T09:08:51.094Z,96803.59
2023-04-25T09:11:55.188Z,96809.69
2023-04-25T09:15:10.165Z,96814.81
2023-04-25T09:18:33.700Z,96818.81
2023-04-25T09:21:36.456Z,96814.03
2023-04-25T09:24:38.030Z,96823.00
2023-04-25T09:27:53.207Z,96826.34
2023-04-25T09:31:00.451Z,96835.69
2023-04-25T09:34:07.917Z,96836.38
2023-04-25T09:37:21.401Z,96835.66
2023-04-25T09:40:43.075Z,96843.44
2023-04-25T09:43:57.992Z,96840.56
2023-04-25T09:47:03.821Z,96845.09
2023-04-25T09:50:17.852Z,96851.22
2023-04-25T09:53:22.873Z,96860.31
2023-04-25T09:56:39.374Z,96863.00
2023-04-25T09:59:46.697Z,96870.34
2023-04-25T10:02:49.770Z,96874.06
2023-04-25T10:06:28.487Z,96881.34
2023-04-25T10:09:33.240Z,96873.38
2023-04-25T10:12:35.215Z,96871.72
2023-04-25T10:15:40.330Z,96882.00
2023-04-25T10:18:42.046Z,96882.66
2023-04-25T10:21:53.509Z,96884.88
2023-04-25T10:24:57.356Z,96881.28
2023-04-25T10:28:00.850Z,96883.72
2023-04-25T10:31:08.620Z,96881.50
2023-04-25T10:34:10.589Z,96882.81
2023-04-25T10:37:14.392Z,96882.75
2023-04-25T10:40:22.934Z,96878.50
2023-04-25T10:43:39.632Z,96880.19
2023-04-25T10:46:41.478Z,96882.41
2023-04-25T10:49:43.698Z,96873.03
2023-04-25T10:52:45.550Z,96876.94
2023-04-25T10:55:54.140Z,96881.22
2023-04-25T10:59:07.445Z,96876.53
2023-04-25T11:02:14.296Z,96873.81
2023-04-25T11:05:43.991Z,96886.00
2023-04-25T11:08:56.815Z,96881.38
2023-04-25T11:11:59.653Z,96887.78
2023-04-25T11:15:05.897Z,96875.16
2023-04-25T11:18:09.739Z,96881.44
2023-04-25T11:21:12.835Z,96879.72
2023-04-25T11:24:14.387Z,96881.53
2023-04-25T11:27:15.884Z,96869.13
2023-04-25T11:30:17.880Z,96858.66
2023-04-25T11:33:24.480Z,96867.94
2023-04-25T11:36:27.011Z,96854.38
2023-04-25T11:39:29.383Z,96856.88
2023-04-25T11:42:34.170Z,96857.13
2023-04-25T11:45:38.071Z,96860.84
2023-04-25T11:48:43.704Z,96852.00
2023-04-25T11:51:47.484Z,96846.78
2023-04-25T11:54:49.081Z,96855.66
2023-04-25T11:57:51.404Z,96858.44
2023-04-25T12:00:53.087Z,96865.13
2023-04-25T12:03:54.902Z,96868.91
2023-04-25T12:06:56.633Z,96878.50
2023-04-25T12:09:58.220Z,96877.34
2023-04-25T12:12:59.715Z,96892.91
2023-04-25T12:16:01.440Z,96883.22
2023-04-25T12:19:03.632Z,96890.97
2023-04-25T12:22:21.120Z,96891.44
2023-04-25T12:25:43.023Z,96894.84
2023-04-25T12:28:48.170Z,96891.09
2023-04-25T12:31:51.095Z,96896.31
2023-04-25T12:34:52.931Z,96894.97
2023-04-25T12:37:54.418Z,96892.44
2023-04-25T12:40:56.154Z,96895.16
2023-04-25T12:43:57.805Z,96900.69
2023-04-25T12:47:00.842Z,96894.56
2023-04-25T12:50:02.587Z,96899.81
2023-04-25T12:53:04.216Z,96896.56
2023-04-25T12:56:06.531Z,96899.94
2023-04-25T12:59:07.995Z,96899.22
2023-04-25T13:02:09.606Z,96891.72
2023-04-25T13:05:12.126Z,96894.00
2023-04-25T13:08:13.683Z,96895.09
2023-04-25T13:11:18.249Z,96892.34
2023-04-25T13:14:19.750Z,96887.72
2023-04-25T13:17:21.338Z,96885.22
2023-04-25T13:20:23.451Z,96888.38
2023-04-25T13:23:27.507Z,96887.91
2023-04-25T13:26:29.016Z,96878.09
2023-04-25T13:29:30.494Z,96873.34
2023-04-25T13:32:32.016Z,96879.59
2023-04-25T13:35:35.610Z,96868.53
2023-04-25T13:38:37.221Z,96877.81
2023-04-25T13:41:38.695Z,96874.03
2023-04-25T13:44:40.301Z,96889.03
2023-04-25T13:47:41.790Z,96897.88
2023-04-25T13:50:43.369Z,96905.59
2023-04-25T13:53:46.337Z,96906.78
2023-04-25T13:56:47.901Z,96912.16
2023-04-25T13:59:49.434Z,96907.16
2023-04-25T14:02:51.403Z,96914.25
2023-04-25T14:05:53.010Z,96916.25
2023-04-25T14:08:55.358Z,96914.97
2023-04-25T14:11:57.516Z,96926.69
2023-04-25T14:14:59.071Z,96924.97
2023-04-25T14:18:01.345Z,96928.72
2023-04-25T14:21:02.972Z,96924.81
2023-04-25T14:24:06.785Z,96929.75
2023-04-25T14:27:08.652Z,96928.81
2023-04-25T14:30:10.789Z,96922.25
2023-04-25T14:33:12.562Z,96924.13
2023-04-25T14:36:15.198Z,96911.75
2023-04-25T14:39:17.537Z,96903.47
2023-04-25T14:42:19.068Z,96916.94
2023-04-25T14:45:20.748Z,96917.13
2023-04-25T14:48:22.384Z,96911.56
2023-04-25T14:51:24.062Z,96906.88
2023-04-25T14:54:26.494Z,96914.31
2023-04-25T14:57:28.205Z,96911.53
2023-04-25T15:00:31.351Z,96914.06
2023-04-25T15:03:33.557Z,96911.19
2023-04-25T15:06:35.184Z,96914.63
2023-04-25T15:09:36.682Z,96915.28
2023-04-25T15:12:38.619Z,96916.28
2023-04-25T15:15:40.392Z,96910.47
2023-04-25T15:18:41.996Z,96930.03
2023-04-25T15:21:43.537Z,96936.69
2023-04-25T15:24:45.070Z,96932.38
2023-04-25T15:27:49.169Z,96942.59
2023-04-25T15:30:51.525Z,96945.66
2023-04-25T15:33:53.102Z,96956.41
2023-04-25T15:36:54.752Z,96958.03
2023-04-25T15:40:11.742Z,96959.47
2023-04-25T15:43:15.967Z,96960.94
2023-04-25T15:46:17.798Z,96964.59
2023-04-25T15:49:21.568Z,96975.44
2023-04-25T15:52:23.042Z,96978.47
2023-04-25T15:55:26.880Z,96979.66
2023-04-25T15:58:28.425Z,96987.78
2023-04-25T16:01:31.227Z,96988.03
2023-04-25T16:04:35.595Z,96993.38
2023-04-25T16:07:38.174Z,96996.63
2023-04-25T16:10:39.766Z,96997.59
2023-04-25T16:13:41.507Z,96997.03
2023-04-25T16:16:44.751Z,96994.34
2023-04-25T16:19:46.388Z,97002.53
2023-04-25T16:22:48.012Z,97000.06
2023-04-25T16:25:50.734Z,96995.94
2023-04-25T16:28:52.570Z,96995.09
2023-04-25T16:31:54.203Z,97003.34
2023-04-25T16:34:57.497Z,97006.47
2023-04-25T16:38:01.025Z,97002.03
2023-04-25T16:41:02.725Z,97012.88
2023-04-25T16:44:06.701Z,97007.78
2023-04-25T16:47:08.330Z,97009.66
2023-04-25T16:50:10.153Z,97006.56
2023-04-25T16:53:11.983Z,97022.13
2023-04-25T16:56:13.507Z,97014.97
2023-04-25T16:59:14.936Z,97008.41
2023-04-25T17:02:17.171Z,97015.16
2023-04-25T17:05:18.832Z,97023.13
2023-04-25T17:08:20.351Z,97026.81
2023-04-25T17:11:21.892Z,97042.50
2023-04-25T17:14:23.424Z,97043.94
2023-04-25T17:17:26.571Z,97053.13
2023-04-25T17:20:28.105Z,97040.44
2023-04-25T17:23:32.297Z,97041.44
2023-04-25T17:26:33.750Z,97041.06
2023-04-25T17:29:35.621Z,97040.03
2023-04-25T17:32:37.166Z,97045.13
2023-04-25T17:35:38.729Z,97042.81
2023-04-25T17:38:40.394Z,97054.63
2023-04-25T17:41:41.875Z,97058.53
2023-04-25T17:44:43.396Z,97055.44
2023-04-25T17:47:45.346Z,97057.63
2023-04-25T17:50:46.899Z,97063.28
2023-04-25T17:53:48.486Z,97071.84
2023-04-25T17:56:50.800Z,97057.78
2023-04-25T17:59:53.466Z,97064.69
2023-04-25T18:02:55.136Z,97063.22
2023-04-25T18:05:56.703Z,97064.19
2023-04-25T18:08:58.629Z,97069.13
2023-04-25T18:12:01.274Z,97076.09
2023-04-25T18:15:06.772Z,97064.50
2023-04-25T18:18:15.108Z,97068.94
2023-04-25T18:21:16.876Z,97070.97
2023-04-25T18:24:18.526Z,97075.47
2023-04-25T18:27:20.431Z,97087.72
2023-04-25T18:30:22.026Z,97097.88
2023-04-25T18:33:23.616Z,97095.84
2023-04-25T18:36:25.106Z,97086.09
2023-04-25T18:39:27.098Z,97095.91
2023-04-25T18:42:29.003Z,97101.34
2023-04-25T18:45:30.608Z,97100.59
2023-04-25T18:48:32.085Z,97099.16
2023-04-25T18:51:33.660Z,97106.16
2023-04-25T18:54:35.178Z,97116.56
2023-04-25T18:57:37.978Z,97122.31
2023-04-25T19:00:40.020Z,97127.84
2023-04-25T19:03:41.933Z,97126.25
2023-04-25T19:06:49.247Z,97135.41
2023-04-25T19:09:50.770Z,97143.38
2023-04-25T19:12:52.625Z,97146.03
2023-04-25T19:15:54.297Z,97143.38
2023-04-25T19:18:56.806Z,97141.94
2023-04-25T19:21:58.910Z,97133.41
2023-04-25T19:25:10.072Z,97138.31
2023-04-25T19:28:12.888Z,97146.25
2023-04-25T19:31:14.479Z,97148.16
2023-04-25T19:34:16.155Z,97153.59
2023-04-25T19:37:17.663Z,97161.22
2023-04-25T19:40:21.136Z,97168.22
2023-04-25T19:43:22.637Z,97158.81
2023-04-25T19:46:24.856Z,97158.72
2023-04-25T19:49:27.095Z,97161.50
2023-04-25T19:52:28.652Z,97162.91
2023-04-25T19:55:30.156Z,97158.84
2023-04-25T19:58:32.216Z,97168.91
2023-04-25T20:01:33.826Z,97166.75
2023-04-25T20:04:35.329Z,97163.13
2023-04-25T20:07:36.974Z,97165.59
2023-04-25T20:10:38.489Z,97171.69
2023-04-25T20:13:40.029Z,97168.69
2023-04-25T20:16:41.800Z,97176.19
2023-04-25T20:19:43.540Z,97179.47
2023-04-25T20:22:45.135Z,97183.38
2023-04-25T20:25:46.731Z,97170.03
2023-04-25T20:28:48.243Z,97185.94
2023-04-25T20:31:50.882Z,97175.16
2023-04-25T20:34:52.464Z,97176.63
2023-04-25T20:37:54.015Z,97173.97
2023-04-25T20:40:56.504Z,97176.44
2023-04-25T20:43:58.186Z,97170.94
2023-04-25T20:46:59.988Z,97171.03
2023-04-25T20:50:03.801Z,97167.56
2023-04-25T20:53:05.674Z,97156.13
2023-04-25T20:56:07.202Z,97154.03
2023-04-25T20:59:09.168Z,97163.59
2023-04-25T21:02:12.388Z,97168.25
2023-04-25T21:05:14.059Z,97169.19
2023-04-25T21:08:15.984Z,97171.84
2023-04-25T21:11:19.413Z,97193.41
2023-04-25T21:14:21.542Z,97190.19
2023-04-25T21:17:23.127Z,97187.34
2023-04-25T21:20:24.619Z,97189.78
2023-04-25T21:23:26.068Z,97192.06
2023-04-25T21:26:27.636Z,97201.34
2023-04-25T21:29:29.121Z,97191.41
2023-04-25T21:32:30.624Z,97195.91
2023-04-25T21:35:32.229Z,97185.59
2023-04-25T21:38:33.809Z,97182.94
2023-04-25T21:41:37.439Z,97189.25
2023-04-25T21:44:39.930Z,97189.50
2023-04-25T21:47:41.984Z,97206.72
2023-04-25T21:50:43.565Z,97208.69
2023-04-25T21:53:47.598Z,97204.59
2023-04-25T21:56:49.589Z,97211.25
2023-04-25T21:59:51.142Z,97212.50
2023-04-25T22:02:56.091Z,97211.31
2023-04-25T22:05:58.848Z,97207.06
2023-04-25T22:09:00.325Z,97207.69
2023-04-25T22:12:03.533Z,97206.16
2023-04-25T22:15:05.630Z,97201.94
2023-04-25T22:18:08.052Z,97199.19
2023-04-25T22:21:10.151Z,97200.38
2023-04-25T22:24:11.669Z,97209.50
2023-04-25T22:27:13.135Z,97206.94
2023-04-25T22:30:14.849Z,97213.22
2023-04-25T22:33:17.668Z,97208.94
2023-04-25T22:36:19.564Z,97211.13
2023-04-25T22:39:21.089Z,97220.34
2023-04-25T22:42:22.614Z,97208.13
2023-04-25T22:45:24.504Z,97210.66
2023-04-25T22:48:26.005Z,97209.22
2023-04-25T22:51:27.443Z,97211.28
2023-04-25T22:54:28.896Z,97211.44
2023-04-25T22:57:31.308Z,97218.00
2023-04-25T23:00:34.392Z,97214.91
2023-04-25T23:03:36.379Z,97219.84
2023-04-25T23:06:38.631Z,97221.13
2023-04-25T23:09:41.744Z,97226.38
2023-04-25T23:12:43.864Z,97224.41
2023-04-25T23:15:45.320Z,97226.72
2023-04-25T23:18:47.005Z,97228.34
2023-04-25T23:21:48.888Z,97228.47
2023-04-25T23:24:51.126Z,97226.94
2023-04-25T23:27:52.980Z,97238.53
2023-04-25T23:30:54.517Z,97235.22
2023-04-25T23:33:56.052Z,97236.75
2023-04-25T23:36:58.080Z,97235.28
2023-04-25T23:39:59.854Z,97237.59
2023-04-25T23:43:02.386Z,97233.59
2023-04-25T23:46:04.278Z,97241.34
2023-04-25T23:49:05.738Z,97238.53
2023-04-25T23:52:07.189Z,97243.03
2023-04-25T23:55:09.824Z,97243.72
2023-04-25T23:58:11.430Z,97238.03
